Time;durP1;ratioP1;P1;durP2;ratioP2;P2;SDS_P1;SDS_P2;PMS_P1;PMS_P2;Temp;Humidity;BMP_temperature;BMP_pressure;BME280_temperature;BME280_humidity;BME280_pressure;Samples;Min_cycle;Max_cycle;Signal;HPM_P1;HPM_P2
2023/08/13 00:00:47;;;;;;;6.93;2.50;;;;;;;;;;5046005;28;20411;-70
2023/08/13 00:03:13;;;;;;;5.20;2.40;;;;;;;;;;5045264;28;20029;-69
2023/08/13 00:05:38;;;;;;;7.50;2.55;;;;;;;;;;5046049;28;20059;-69
2023/08/13 00:08:04;;;;;;;8.82;2.60;;;;;;;;;;5046188;28;20475;-69
2023/08/13 00:10:29;;;;;;;10.23;2.42;;;;;;;;;;5044125;28;20021;-69
2023/08/13 00:12:54;;;;;;;4.63;2.70;;;;;;;;;;5045550;28;20057;-69
2023/08/13 00:15:20;;;;;;;4.72;2.25;;;;;;;;;;5059017;28;20425;-69
2023/08/13 00:17:45;;;;;;;5.88;2.58;;;;;;;;;;5044501;28;20430;-69
2023/08/13 00:20:11;;;;;;;6.25;2.45;;;;;;;;;;5046367;28;20074;-69
2023/08/13 00:22:36;;;;;;;7.32;2.42;;;;;;;;;;5049248;28;20082;-68
2023/08/13 00:25:02;;;;;;;8.77;2.53;;;;;;;;;;5049457;28;20054;-69
2023/08/13 00:27:27;;;;;;;7.90;2.60;;;;;;;;;;5049577;28;20032;-69
2023/08/13 00:29:53;;;;;;;7.78;2.63;;;;;;;;;;5039912;28;20108;-69
2023/08/13 00:32:18;;;;;;;6.55;2.20;;;;;;;;;;5029827;28;20547;-69
2023/08/13 00:34:43;;;;;;;8.95;2.47;;;;;;;;;;5030136;28;20515;-70
2023/08/13 00:37:09;;;;;;;10.80;2.70;;;;;;;;;;5030874;28;20434;-69
2023/08/13 00:39:34;;;;;;;5.95;2.33;;;;;;;;;;5047605;28;20116;-69
2023/08/13 00:41:59;;;;;;;12.80;3.38;;;;;;;;;;5042866;28;20033;-69
2023/08/13 00:44:26;;;;;;;5.03;2.03;;;;;;;;;;5033264;28;20514;-69
2023/08/13 00:46:51;;;;;;;6.75;2.45;;;;;;;;;;5028896;28;20037;-69
2023/08/13 00:49:17;;;;;;;12.05;2.70;;;;;;;;;;5021576;28;20038;-68
2023/08/13 00:51:42;;;;;;;7.63;2.60;;;;;;;;;;5025263;28;20044;-69
2023/08/13 00:54:09;;;;;;;6.72;2.47;;;;;;;;;;5036579;28;20056;-70
2023/08/13 00:56:40;;;;;;;5.38;2.20;;;;;;;;;;5029926;28;20022;-69
2023/08/13 00:59:05;;;;;;;8.35;2.38;;;;;;;;;;5028632;28;20037;-69
2023/08/13 01:01:31;;;;;;;4.60;2.30;;;;;;;;;;5029350;28;20434;-69
2023/08/13 01:03:56;;;;;;;8.70;2.40;;;;;;;;;;5027802;28;20040;-69
2023/08/13 01:06:37;;;;;;;6.43;2.35;;;;;;;;;;5028939;28;20034;-69
2023/08/13 01:09:19;;;;;;;5.88;2.17;;;;;;;;;;5025866;28;20080;-69
2023/08/13 01:11:44;;;;;;;10.15;2.60;;;;;;;;;;5029236;28;20018;-69
2023/08/13 01:14:34;;;;;;;3.85;2.33;;;;;;;;;;5029038;28;20040;-69
2023/08/13 01:17:00;;;;;;;8.50;2.22;;;;;;;;;;5012676;28;20045;-70
2023/08/13 01:19:26;;;;;;;7.75;2.38;;;;;;;;;;5022416;28;20038;-69
2023/08/13 01:21:51;;;;;;;8.70;2.22;;;;;;;;;;5028819;28;20037;-69
2023/08/13 01:24:16;;;;;;;7.47;2.40;;;;;;;;;;5028421;28;20025;-69
2023/08/13 01:26:51;;;;;;;7.10;2.38;;;;;;;;;;5027232;28;20085;-69
2023/08/13 01:29:32;;;;;;;6.13;2.30;;;;;;;;;;5033852;28;20048;-69
2023/08/13 01:32:00;;;;;;;4.72;2.10;;;;;;;;;;5047685;28;20056;-69
2023/08/13 01:34:26;;;;;;;7.90;2.10;;;;;;;;;;5048679;28;20120;-69
2023/08/13 01:36:52;;;;;;;4.88;2.13;;;;;;;;;;5048265;28;20123;-69
2023/08/13 01:39:18;;;;;;;6.53;2.33;;;;;;;;;;5047955;28;20433;-69
2023/08/13 01:41:50;;;;;;;8.35;2.75;;;;;;;;;;5048067;28;20494;-69
2023/08/13 01:44:16;;;;;;;5.95;1.90;;;;;;;;;;5048730;28;20029;-69
2023/08/13 01:46:41;;;;;;;3.70;2.33;;;;;;;;;;5047965;28;20477;-69
2023/08/13 01:49:07;;;;;;;11.07;2.20;;;;;;;;;;5048838;28;20723;-69
2023/08/13 01:51:32;;;;;;;7.68;2.42;;;;;;;;;;5032000;28;20052;-69
2023/08/13 01:53:58;;;;;;;6.97;2.40;;;;;;;;;;5048199;28;20571;-69
2023/08/13 01:56:23;;;;;;;14.23;3.05;;;;;;;;;;5048359;28;20155;-70
2023/08/13 01:58:48;;;;;;;5.35;2.10;;;;;;;;;;5036560;28;20079;-69
2023/08/13 02:01:14;;;;;;;6.72;2.03;;;;;;;;;;5048557;28;20037;-69
2023/08/13 02:03:39;;;;;;;4.85;1.90;;;;;;;;;;5048903;28;20441;-69
2023/08/13 02:06:04;;;;;;;8.65;2.17;;;;;;;;;;5055523;28;20059;-70
2023/08/13 02:08:30;;;;;;;6.07;2.08;;;;;;;;;;5058547;28;20094;-70
2023/08/13 02:10:55;;;;;;;5.95;2.33;;;;;;;;;;5047322;28;20037;-69
2023/08/13 02:13:21;;;;;;;6.45;2.47;;;;;;;;;;5049471;28;20033;-69
2023/08/13 02:15:46;;;;;;;5.15;2.28;;;;;;;;;;5040694;28;20025;-69
2023/08/13 02:18:11;;;;;;;9.77;2.50;;;;;;;;;;5016087;28;20056;-69
2023/08/13 02:20:37;;;;;;;4.43;2.13;;;;;;;;;;5047469;28;20029;-69
2023/08/13 02:23:02;;;;;;;7.57;2.25;;;;;;;;;;5048059;28;20028;-69
2023/08/13 02:25:27;;;;;;;6.65;2.28;;;;;;;;;;5047233;28;20679;-69
2023/08/13 02:27:53;;;;;;;4.05;2.03;;;;;;;;;;5047860;28;20143;-69
2023/08/13 02:30:18;;;;;;;5.75;2.45;;;;;;;;;;5046477;28;20040;-69
2023/08/13 02:32:43;;;;;;;11.63;2.38;;;;;;;;;;5047449;28;20029;-69
2023/08/13 02:35:09;;;;;;;4.60;1.92;;;;;;;;;;5047848;28;20033;-69
2023/08/13 02:37:35;;;;;;;4.43;2.10;;;;;;;;;;5045734;28;20083;-69
2023/08/13 02:40:01;;;;;;;4.78;2.75;;;;;;;;;;5047070;28;20092;-69
2023/08/13 02:42:26;;;;;;;5.07;2.30;;;;;;;;;;5047014;28;20033;-69
2023/08/13 02:44:51;;;;;;;7.00;2.60;;;;;;;;;;5045961;28;20036;-69
2023/08/13 02:47:17;;;;;;;7.70;2.28;;;;;;;;;;5052008;28;20078;-69
2023/08/13 02:49:42;;;;;;;7.90;2.30;;;;;;;;;;5051287;28;20064;-69
2023/08/13 02:52:07;;;;;;;5.40;2.50;;;;;;;;;;5044533;28;20038;-69
2023/08/13 02:54:33;;;;;;;5.32;2.15;;;;;;;;;;5041721;28;20098;-69
2023/08/13 02:56:59;;;;;;;7.70;2.45;;;;;;;;;;5038361;28;20061;-69
2023/08/13 02:59:25;;;;;;;10.88;2.60;;;;;;;;;;5041894;28;20030;-69
2023/08/13 03:01:50;;;;;;;8.68;2.53;;;;;;;;;;5046317;28;20052;-69
2023/08/13 03:04:15;;;;;;;7.88;2.60;;;;;;;;;;5046592;28;20492;-69
2023/08/13 03:06:41;;;;;;;8.00;2.45;;;;;;;;;;5015774;28;20041;-69
2023/08/13 03:09:07;;;;;;;6.22;2.22;;;;;;;;;;5046772;28;20083;-69
2023/08/13 03:11:32;;;;;;;7.25;2.38;;;;;;;;;;5046699;28;20063;-69
2023/08/13 03:13:57;;;;;;;9.10;2.58;;;;;;;;;;5047202;28;20476;-70
2023/08/13 03:16:22;;;;;;;5.68;2.10;;;;;;;;;;5046268;28;20036;-69
2023/08/13 03:18:48;;;;;;;6.93;3.30;;;;;;;;;;5047031;28;20033;-69
2023/08/13 03:21:13;;;;;;;7.82;2.42;;;;;;;;;;5056854;28;20028;-69
2023/08/13 03:23:39;;;;;;;4.38;2.20;;;;;;;;;;5049201;28;20025;-69
2023/08/13 03:26:04;;;;;;;6.75;2.30;;;;;;;;;;5047210;28;20048;-69
2023/08/13 03:28:29;;;;;;;7.45;2.30;;;;;;;;;;5047570;28;20029;-69
2023/08/13 03:31:02;;;;;;;6.97;2.30;;;;;;;;;;5050396;28;20044;-69
2023/08/13 03:33:27;;;;;;;6.97;2.17;;;;;;;;;;5059674;28;20029;-69
2023/08/13 03:35:53;;;;;;;8.23;2.45;;;;;;;;;;5048666;28;20035;-70
2023/08/13 03:38:18;;;;;;;6.53;2.30;;;;;;;;;;5046028;28;20666;-69
2023/08/13 03:40:44;;;;;;;6.57;2.45;;;;;;;;;;5046226;28;20033;-69
2023/08/13 03:43:09;;;;;;;5.13;2.22;;;;;;;;;;5045620;28;20036;-69
2023/08/13 03:45:34;;;;;;;12.68;2.70;;;;;;;;;;5046334;28;20036;-69
2023/08/13 03:48:00;;;;;;;5.80;2.40;;;;;;;;;;5045651;28;20561;-69
2023/08/13 03:50:25;;;;;;;7.28;2.20;;;;;;;;;;5046319;28;20032;-69
2023/08/13 03:52:50;;;;;;;8.70;2.70;;;;;;;;;;5024731;28;20056;-70
2023/08/13 03:55:16;;;;;;;8.77;2.75;;;;;;;;;;5036167;28;20036;-69
2023/08/13 03:57:41;;;;;;;8.07;2.45;;;;;;;;;;5049282;28;20037;-69
2023/08/13 04:00:07;;;;;;;7.53;2.53;;;;;;;;;;5037054;28;20355;-69
2023/08/13 04:02:33;;;;;;;4.97;2.30;;;;;;;;;;5030950;28;20032;-69
2023/08/13 04:04:58;;;;;;;8.02;2.63;;;;;;;;;;5045910;28;20528;-69
2023/08/13 04:07:24;;;;;;;11.95;2.42;;;;;;;;;;5045313;28;20095;-69
2023/08/13 04:09:49;;;;;;;8.27;2.70;;;;;;;;;;5045687;28;20130;-69
2023/08/13 04:12:14;;;;;;;11.13;2.95;;;;;;;;;;5045433;28;20060;-69
2023/08/13 04:14:40;;;;;;;9.15;2.53;;;;;;;;;;5045167;28;20028;-69
2023/08/13 04:17:05;;;;;;;12.02;2.85;;;;;;;;;;5046104;28;20021;-69
2023/08/13 04:19:30;;;;;;;9.27;2.80;;;;;;;;;;5046006;28;20040;-70
2023/08/13 04:21:56;;;;;;;5.93;2.88;;;;;;;;;;5045275;28;20033;-69
2023/08/13 04:24:21;;;;;;;5.95;2.25;;;;;;;;;;5046015;28;20529;-69
2023/08/13 04:26:46;;;;;;;8.32;2.60;;;;;;;;;;5045906;28;20029;-69
2023/08/13 04:29:12;;;;;;;13.88;2.83;;;;;;;;;;5045719;28;20051;-69
2023/08/13 04:31:37;;;;;;;9.05;2.47;;;;;;;;;;5044618;28;20044;-69
2023/08/13 04:34:02;;;;;;;6.35;2.67;;;;;;;;;;5027772;28;20071;-69
2023/08/13 04:36:28;;;;;;;8.95;2.50;;;;;;;;;;5045607;28;20025;-69
2023/08/13 04:38:53;;;;;;;8.68;2.40;;;;;;;;;;5045252;28;20028;-69
2023/08/13 04:41:19;;;;;;;8.73;2.65;;;;;;;;;;5045870;28;20017;-69
2023/08/13 04:43:44;;;;;;;5.35;2.33;;;;;;;;;;5045712;28;20528;-69
2023/08/13 04:46:09;;;;;;;5.82;2.50;;;;;;;;;;5032190;28;20091;-69
2023/08/13 04:48:45;;;;;;;5.95;2.50;;;;;;;;;;5045138;28;20039;-69
2023/08/13 04:51:13;;;;;;;6.50;2.70;;;;;;;;;;5045702;28;20140;-69
2023/08/13 04:53:39;;;;;;;7.97;3.10;;;;;;;;;;5046210;28;20031;-69
2023/08/13 04:56:06;;;;;;;7.15;2.60;;;;;;;;;;5031924;28;20100;-69
2023/08/13 04:58:32;;;;;;;6.60;2.90;;;;;;;;;;5066306;28;20089;-69
2023/08/13 05:00:57;;;;;;;8.68;3.30;;;;;;;;;;5051287;28;20025;-69
2023/08/13 05:03:22;;;;;;;9.65;2.88;;;;;;;;;;5045058;28;20048;-69
2023/08/13 05:05:48;;;;;;;8.68;2.72;;;;;;;;;;5045514;28;20075;-69
2023/08/13 05:08:13;;;;;;;8.00;2.70;;;;;;;;;;5048275;28;20023;-69
2023/08/13 05:10:39;;;;;;;6.20;2.50;;;;;;;;;;5049090;28;20037;-69
2023/08/13 05:13:04;;;;;;;6.85;2.90;;;;;;;;;;5031179;28;20037;-69
2023/08/13 05:15:29;;;;;;;10.38;3.38;;;;;;;;;;5048335;28;20383;-69
2023/08/13 05:17:55;;;;;;;9.23;2.80;;;;;;;;;;5048670;28;20064;-69
2023/08/13 05:20:20;;;;;;;6.93;2.55;;;;;;;;;;5048391;28;20108;-69
2023/08/13 05:22:46;;;;;;;9.52;2.50;;;;;;;;;;5048936;28;20418;-69
2023/08/13 05:25:12;;;;;;;9.70;3.42;;;;;;;;;;5048623;28;20033;-69
2023/08/13 05:27:37;;;;;;;6.53;2.92;;;;;;;;;;5048595;28;20047;-69
2023/08/13 05:30:03;;;;;;;11.55;2.58;;;;;;;;;;5047949;28;20132;-69
2023/08/13 05:32:28;;;;;;;9.48;2.42;;;;;;;;;;5030723;28;20021;-69
2023/08/13 05:34:54;;;;;;;6.65;2.97;;;;;;;;;;5048145;28;20121;-69
2023/08/13 05:37:20;;;;;;;11.82;2.92;;;;;;;;;;5048138;28;20061;-69
2023/08/13 05:39:45;;;;;;;6.55;2.72;;;;;;;;;;5047852;28;20556;-69
2023/08/13 05:42:10;;;;;;;7.50;2.97;;;;;;;;;;5035043;28;20465;-69
2023/08/13 05:44:36;;;;;;;8.18;2.60;;;;;;;;;;5029838;28;20025;-69
2023/08/13 05:47:01;;;;;;;10.38;2.55;;;;;;;;;;5048316;28;20028;-70
2023/08/13 05:49:27;;;;;;;4.85;2.60;;;;;;;;;;5048206;28;20037;-69
2023/08/13 05:51:52;;;;;;;8.77;2.45;;;;;;;;;;5048038;28;20045;-69
2023/08/13 05:54:18;;;;;;;7.35;2.45;;;;;;;;;;5047197;28;20039;-69
2023/08/13 05:56:43;;;;;;;8.75;2.55;;;;;;;;;;5039692;28;20025;-69
2023/08/13 05:59:08;;;;;;;7.78;2.60;;;;;;;;;;5043102;28;20021;-69
2023/08/13 06:01:34;;;;;;;8.10;2.55;;;;;;;;;;5035183;28;20060;-69
2023/08/13 06:03:59;;;;;;;7.82;2.65;;;;;;;;;;5047989;28;20029;-69
2023/08/13 06:06:25;;;;;;;9.30;2.70;;;;;;;;;;5030083;28;20057;-69
2023/08/13 06:08:50;;;;;;;6.47;2.50;;;;;;;;;;5048148;28;20021;-69
2023/08/13 06:11:15;;;;;;;7.70;2.80;;;;;;;;;;5047782;28;20021;-69
2023/08/13 06:13:41;;;;;;;8.38;2.58;;;;;;;;;;5047998;28;20029;-69
2023/08/13 06:16:06;;;;;;;6.38;2.65;;;;;;;;;;5048254;28;20079;-69
2023/08/13 06:18:33;;;;;;;6.45;2.65;;;;;;;;;;5037962;28;20044;-69
2023/08/13 06:20:59;;;;;;;10.27;2.63;;;;;;;;;;5033771;28;20501;-69
2023/08/13 06:23:24;;;;;;;8.68;2.78;;;;;;;;;;5058600;28;20029;-69
2023/08/13 06:25:50;;;;;;;8.05;2.58;;;;;;;;;;5054109;28;20076;-69
2023/08/13 06:28:15;;;;;;;6.60;2.25;;;;;;;;;;5047961;28;20514;-69
2023/08/13 06:30:43;;;;;;;6.20;2.53;;;;;;;;;;5030663;28;20080;-69
2023/08/13 06:33:09;;;;;;;8.23;2.80;;;;;;;;;;5027317;28;20577;-69
2023/08/13 06:35:34;;;;;;;7.45;2.30;;;;;;;;;;5028228;28;20049;-69
2023/08/13 06:37:59;;;;;;;6.78;2.78;;;;;;;;;;5007412;28;20026;-69
2023/08/13 06:40:25;;;;;;;5.55;2.75;;;;;;;;;;5007247;28;20034;-69
2023/08/13 06:42:50;;;;;;;6.18;2.17;;;;;;;;;;5007561;28;20467;-69
2023/08/13 06:45:15;;;;;;;6.95;2.42;;;;;;;;;;5011048;28;20553;-69
2023/08/13 06:47:41;;;;;;;4.75;2.45;;;;;;;;;;5027568;28;20560;-68
2023/08/13 06:50:06;;;;;;;10.73;3.00;;;;;;;;;;5027611;28;20075;-69
2023/08/13 06:52:31;;;;;;;7.07;2.58;;;;;;;;;;5026947;28;20519;-69
2023/08/13 06:54:57;;;;;;;5.63;2.35;;;;;;;;;;5027396;28;20037;-69
2023/08/13 06:57:22;;;;;;;7.68;2.38;;;;;;;;;;5023827;28;20120;-69
2023/08/13 06:59:48;;;;;;;9.63;2.60;;;;;;;;;;5005226;28;20032;-69
2023/08/13 07:02:13;;;;;;;6.55;3.00;;;;;;;;;;4997580;28;20026;-69
2023/08/13 07:04:38;;;;;;;8.55;2.40;;;;;;;;;;4996438;28;20120;-69
2023/08/13 07:07:04;;;;;;;7.90;2.40;;;;;;;;;;5001051;28;20034;-68
2023/08/13 07:09:29;;;;;;;6.43;2.40;;;;;;;;;;5001949;28;20045;-69
2023/08/13 07:11:55;;;;;;;9.23;2.35;;;;;;;;;;5005945;28;20041;-69
2023/08/13 07:14:20;;;;;;;7.68;2.78;;;;;;;;;;5024414;28;20028;-69
2023/08/13 07:16:46;;;;;;;5.85;2.40;;;;;;;;;;5023343;28;20029;-69
2023/08/13 07:19:11;;;;;;;6.65;2.70;;;;;;;;;;5023558;28;20641;-69
2023/08/13 07:21:37;;;;;;;7.40;2.60;;;;;;;;;;5024568;28;20045;-69
2023/08/13 07:24:04;;;;;;;5.32;2.38;;;;;;;;;;5025038;28;20422;-70
2023/08/13 07:26:33;;;;;;;5.18;2.40;;;;;;;;;;5025809;28;20075;-69
2023/08/13 07:28:58;;;;;;;10.13;2.92;;;;;;;;;;5025419;28;20030;-69
2023/08/13 07:31:24;;;;;;;6.40;2.50;;;;;;;;;;5021445;28;20091;-69
2023/08/13 07:33:52;;;;;;;6.03;2.50;;;;;;;;;;5024305;28;20057;-69
2023/08/13 07:36:18;;;;;;;11.27;2.55;;;;;;;;;;5024464;28;20040;-69
2023/08/13 07:38:43;;;;;;;7.80;2.40;;;;;;;;;;5022424;28;20104;-69
2023/08/13 07:41:09;;;;;;;7.57;2.40;;;;;;;;;;5026250;28;20696;-69
2023/08/13 07:43:34;;;;;;;7.20;3.10;;;;;;;;;;5024866;28;20429;-69
2023/08/13 07:45:59;;;;;;;5.32;2.58;;;;;;;;;;5026846;28;20032;-68
2023/08/13 07:48:25;;;;;;;5.07;2.30;;;;;;;;;;5035683;28;20049;-69
2023/08/13 07:50:50;;;;;;;9.07;3.00;;;;;;;;;;5028417;28;20474;-67
2023/08/13 07:53:16;;;;;;;5.75;2.17;;;;;;;;;;5024336;28;20453;-70
2023/08/13 07:55:41;;;;;;;4.95;2.45;;;;;;;;;;5024913;28;20038;-69
2023/08/13 07:58:07;;;;;;;6.05;2.03;;;;;;;;;;5019162;28;20034;-69
2023/08/13 08:00:32;;;;;;;6.93;2.30;;;;;;;;;;5008108;28;20049;-69
2023/08/13 08:02:58;;;;;;;6.28;2.38;;;;;;;;;;5002935;28;20215;-69
2023/08/13 08:05:23;;;;;;;5.10;2.20;;;;;;;;;;5016235;28;20084;-69
2023/08/13 08:07:49;;;;;;;8.07;2.20;;;;;;;;;;5020871;28;20037;-70
2023/08/13 08:10:14;;;;;;;6.45;2.17;;;;;;;;;;5018848;28;20461;-70
2023/08/13 08:12:39;;;;;;;12.93;2.60;;;;;;;;;;5039375;28;20695;-70
2023/08/13 08:15:05;;;;;;;10.77;3.00;;;;;;;;;;5022909;28;20037;-70
2023/08/13 08:17:31;;;;;;;5.50;2.10;;;;;;;;;;5024484;28;20072;-70
2023/08/13 08:19:59;;;;;;;7.97;2.40;;;;;;;;;;5022024;28;20053;-69
2023/08/13 08:22:25;;;;;;;7.97;2.40;;;;;;;;;;5017558;28;20037;-71
2023/08/13 08:24:50;;;;;;;7.78;2.58;;;;;;;;;;5018861;28;20041;-70
2023/08/13 08:27:16;;;;;;;5.88;2.35;;;;;;;;;;5020033;28;20049;-70
2023/08/13 08:29:41;;;;;;;5.25;2.60;;;;;;;;;;5028076;28;20076;-71
2023/08/13 08:32:07;;;;;;;6.53;2.00;;;;;;;;;;5044003;28;20413;-71
2023/08/13 08:34:33;;;;;;;7.50;2.38;;;;;;;;;;5036043;28;20087;-70
2023/08/13 08:36:58;;;;;;;5.72;2.30;;;;;;;;;;5043274;28;20033;-71
2023/08/13 08:39:24;;;;;;;7.68;3.08;;;;;;;;;;5043448;28;20036;-70
2023/08/13 08:41:55;;;;;;;6.10;2.40;;;;;;;;;;5036148;28;20022;-70
2023/08/13 08:44:21;;;;;;;4.30;2.40;;;;;;;;;;5044904;28;20027;-69
2023/08/13 08:46:52;;;;;;;5.78;2.15;;;;;;;;;;5042506;28;20064;-71
2023/08/13 08:49:21;;;;;;;11.10;2.75;;;;;;;;;;5048321;28;20128;-70
2023/08/13 08:51:47;;;;;;;6.35;2.10;;;;;;;;;;5044101;28;20079;-70
2023/08/13 08:54:14;;;;;;;4.55;2.00;;;;;;;;;;5047130;28;20029;-70
2023/08/13 08:56:39;;;;;;;6.85;2.58;;;;;;;;;;5040360;28;20032;-69
2023/08/13 08:59:05;;;;;;;7.93;2.53;;;;;;;;;;5043258;28;20025;-69
2023/08/13 09:01:31;;;;;;;6.35;2.58;;;;;;;;;;5035174;28;20146;-69
2023/08/13 09:03:56;;;;;;;4.93;2.17;;;;;;;;;;5048057;28;20033;-70
2023/08/13 09:06:21;;;;;;;7.32;3.17;;;;;;;;;;5047641;28;20118;-69
2023/08/13 09:08:48;;;;;;;9.43;2.80;;;;;;;;;;5049273;28;20484;-69
2023/08/13 09:11:13;;;;;;;7.00;2.45;;;;;;;;;;5052404;28;20028;-73
2023/08/13 09:13:49;;;;;;;5.90;2.28;;;;;;;;;;5058412;28;20029;-70
2023/08/13 09:16:14;;;;;;;7.40;2.30;;;;;;;;;;5054636;28;20037;-70
2023/08/13 09:18:39;;;;;;;6.93;2.33;;;;;;;;;;5048343;28;20040;-70
2023/08/13 09:21:05;;;;;;;6.65;2.28;;;;;;;;;;5047210;28;20025;-69
2023/08/13 09:23:30;;;;;;;5.55;2.00;;;;;;;;;;5043594;28;20083;-70
2023/08/13 09:25:57;;;;;;;6.57;2.53;;;;;;;;;;5046925;28;20113;-70
2023/08/13 09:28:23;;;;;;;6.28;2.42;;;;;;;;;;5047073;28;20037;-71
2023/08/13 09:30:48;;;;;;;7.07;2.58;;;;;;;;;;5042287;28;20032;-68
2023/08/13 09:33:16;;;;;;;9.40;3.05;;;;;;;;;;5045075;28;20116;-71
2023/08/13 09:35:42;;;;;;;6.90;2.60;;;;;;;;;;5047397;28;20025;-71
2023/08/13 09:38:08;;;;;;;7.40;2.70;;;;;;;;;;5044931;28;20102;-70
2023/08/13 09:40:34;;;;;;;11.45;2.40;;;;;;;;;;5046056;28;20059;-68
2023/08/13 09:43:06;;;;;;;7.00;2.75;;;;;;;;;;5045110;28;20666;-72
2023/08/13 09:45:32;;;;;;;7.70;2.47;;;;;;;;;;5045363;28;20029;-72
2023/08/13 09:48:02;;;;;;;7.03;2.30;;;;;;;;;;5042982;28;20037;-70
2023/08/13 09:50:31;;;;;;;5.00;2.50;;;;;;;;;;5038543;28;20171;-70
2023/08/13 09:52:58;;;;;;;7.82;2.20;;;;;;;;;;5039879;28;20128;-70
2023/08/13 09:55:31;;;;;;;7.28;2.58;;;;;;;;;;5055551;28;20064;-69
2023/08/13 09:58:00;;;;;;;10.07;2.30;;;;;;;;;;5051004;28;20048;-69
2023/08/13 10:00:27;;;;;;;7.88;3.15;;;;;;;;;;5055358;28;20033;-70
2023/08/13 10:02:52;;;;;;;5.20;1.90;;;;;;;;;;5047435;28;20021;-70
2023/08/13 10:05:18;;;;;;;5.85;1.80;;;;;;;;;;5045979;28;20114;-70
2023/08/13 10:07:45;;;;;;;6.22;2.10;;;;;;;;;;5046180;28;20101;-70
2023/08/13 10:10:10;;;;;;;8.27;2.25;;;;;;;;;;5046971;28;20032;-70
2023/08/13 10:12:37;;;;;;;5.80;2.00;;;;;;;;;;5047154;28;20029;-70
2023/08/13 10:15:03;;;;;;;5.97;1.90;;;;;;;;;;5040950;28;20083;-69
2023/08/13 10:17:29;;;;;;;6.70;1.63;;;;;;;;;;5041569;28;20021;-70
2023/08/13 10:19:56;;;;;;;8.35;2.15;;;;;;;;;;5043168;28;20029;-68
2023/08/13 10:22:35;;;;;;;6.40;2.10;;;;;;;;;;5060627;28;20059;-70
2023/08/13 10:25:01;;;;;;;6.65;2.40;;;;;;;;;;5046297;28;20036;-69
2023/08/13 10:27:28;;;;;;;5.97;2.15;;;;;;;;;;5046557;28;20021;-70
2023/08/13 10:30:10;;;;;;;8.95;2.47;;;;;;;;;;5046832;28;20048;-69
2023/08/13 10:32:51;;;;;;;8.13;2.67;;;;;;;;;;5047299;28;20517;-69
2023/08/13 10:35:31;;;;;;;7.68;1.85;;;;;;;;;;5048661;28;20103;-70
2023/08/13 10:37:59;;;;;;;6.43;2.00;;;;;;;;;;5050801;28;20033;-70
2023/08/13 10:40:25;;;;;;;11.00;2.33;;;;;;;;;;5058055;28;20037;-70
2023/08/13 10:42:52;;;;;;;6.38;1.70;;;;;;;;;;5046772;28;20037;-70
2023/08/13 10:45:20;;;;;;;5.88;2.10;;;;;;;;;;5044891;28;20554;-70
2023/08/13 10:47:53;;;;;;;4.07;1.83;;;;;;;;;;5046694;28;20116;-70
2023/08/13 10:50:18;;;;;;;4.47;1.85;;;;;;;;;;5046696;28;20017;-70
2023/08/13 10:52:47;;;;;;;6.68;1.95;;;;;;;;;;5046200;28;20037;-70
2023/08/13 10:55:16;;;;;;;6.13;1.98;;;;;;;;;;5046027;28;20028;-70
2023/08/13 10:57:41;;;;;;;3.55;1.80;;;;;;;;;;5037952;28;20067;-69
2023/08/13 11:00:12;;;;;;;3.15;1.95;;;;;;;;;;5043937;28;20033;-69
2023/08/13 11:02:37;;;;;;;5.18;2.00;;;;;;;;;;5043599;28;20036;-69
2023/08/13 11:05:03;;;;;;;7.80;1.95;;;;;;;;;;5050394;28;20409;-70
2023/08/13 11:07:31;;;;;;;4.57;1.88;;;;;;;;;;5060849;28;20087;-70
2023/08/13 11:09:56;;;;;;;3.38;1.40;;;;;;;;;;5041610;28;20072;-70
2023/08/13 11:12:22;;;;;;;9.88;1.80;;;;;;;;;;5029847;28;20056;-71
2023/08/13 11:14:48;;;;;;;5.05;1.90;;;;;;;;;;5044892;28;20409;-69
2023/08/13 11:17:13;;;;;;;7.43;2.15;;;;;;;;;;5044970;28;20029;-70
2023/08/13 11:19:38;;;;;;;5.40;1.73;;;;;;;;;;5017864;28;20040;-70
2023/08/13 11:22:04;;;;;;;4.45;1.75;;;;;;;;;;5026318;28;20095;-70
2023/08/13 11:24:33;;;;;;;2.22;1.15;;;;;;;;;;5023826;28;20108;-70
2023/08/13 11:26:59;;;;;;;3.17;1.50;;;;;;;;;;5025496;28;20098;-69
2023/08/13 11:29:24;;;;;;;3.10;1.33;;;;;;;;;;5031848;28;20052;-70
2023/08/13 11:31:50;;;;;;;5.07;1.30;;;;;;;;;;5044026;28;20421;-70
2023/08/13 11:34:17;;;;;;;7.13;1.77;;;;;;;;;;5026763;28;20033;-70
2023/08/13 11:36:47;;;;;;;4.05;1.55;;;;;;;;;;5043958;28;20037;-70
2023/08/13 11:39:13;;;;;;;3.22;1.23;;;;;;;;;;5044426;28;20518;-70
2023/08/13 11:41:39;;;;;;;5.15;1.50;;;;;;;;;;5045032;28;20550;-69
2023/08/13 11:44:07;;;;;;;7.18;1.60;;;;;;;;;;5043641;28;20041;-70
2023/08/13 11:46:56;;;;;;;5.55;1.60;;;;;;;;;;5026816;28;20092;-70
2023/08/13 11:49:22;;;;;;;4.70;1.45;;;;;;;;;;5030958;28;20044;-70
2023/08/13 11:51:49;;;;;;;5.07;1.60;;;;;;;;;;5016830;28;20119;-70
2023/08/13 11:54:17;;;;;;;6.00;1.48;;;;;;;;;;5024985;28;20048;-70
2023/08/13 11:56:42;;;;;;;5.85;1.48;;;;;;;;;;5016437;28;20033;-70
2023/08/13 11:59:08;;;;;;;6.68;1.25;;;;;;;;;;5023322;28;20028;-70
2023/08/13 12:01:34;;;;;;;3.75;1.40;;;;;;;;;;5009067;28;20131;-70
2023/08/13 12:04:03;;;;;;;5.55;1.65;;;;;;;;;;5014558;28;20497;-69
2023/08/13 12:06:28;;;;;;;9.35;1.77;;;;;;;;;;5007439;28;20033;-70
2023/08/13 12:08:53;;;;;;;6.05;1.52;;;;;;;;;;5018620;28;20099;-70
2023/08/13 12:11:19;;;;;;;4.13;1.50;;;;;;;;;;5024114;28;20028;-70
2023/08/13 12:13:47;;;;;;;6.90;1.60;;;;;;;;;;5024666;28;20041;-70
2023/08/13 12:16:13;;;;;;;6.80;1.60;;;;;;;;;;5005147;28;20084;-70
2023/08/13 12:18:38;;;;;;;3.72;1.60;;;;;;;;;;5024309;28;20034;-70
2023/08/13 12:21:04;;;;;;;7.72;2.20;;;;;;;;;;5023900;28;20025;-70
2023/08/13 12:23:29;;;;;;;3.60;1.70;;;;;;;;;;5024051;28;20017;-70
2023/08/13 12:25:54;;;;;;;3.55;1.63;;;;;;;;;;5024693;28;20044;-70
2023/08/13 12:28:20;;;;;;;3.67;1.58;;;;;;;;;;5024457;28;20072;-70
2023/08/13 12:30:45;;;;;;;8.05;1.80;;;;;;;;;;5023962;28;20431;-70
2023/08/13 12:33:11;;;;;;;4.07;2.00;;;;;;;;;;5022537;28;20282;-70
2023/08/13 12:35:36;;;;;;;2.65;1.60;;;;;;;;;;5023255;28;20084;-70
2023/08/13 12:38:02;;;;;;;7.22;1.60;;;;;;;;;;5010690;28;20029;-71
2023/08/13 12:40:27;;;;;;;5.25;1.80;;;;;;;;;;5024131;28;20511;-70
2023/08/13 12:42:53;;;;;;;4.65;1.50;;;;;;;;;;5017782;28;20033;-71
2023/08/13 12:45:19;;;;;;;4.78;1.60;;;;;;;;;;5024052;28;20033;-71
2023/08/13 12:47:44;;;;;;;6.30;1.60;;;;;;;;;;5021413;28;20029;-70
2023/08/13 12:50:10;;;;;;;4.38;1.27;;;;;;;;;;5023952;28;20025;-71
2023/08/13 12:52:35;;;;;;;4.65;1.38;;;;;;;;;;5024463;28;20029;-70
2023/08/13 12:55:01;;;;;;;3.83;1.52;;;;;;;;;;5025030;28;20053;-70
2023/08/13 12:57:26;;;;;;;6.78;1.60;;;;;;;;;;5011119;28;20115;-70
2023/08/13 12:59:53;;;;;;;6.10;1.60;;;;;;;;;;5038310;28;20052;-70
2023/08/13 13:02:19;;;;;;;2.90;1.50;;;;;;;;;;5044795;28;20389;-70
2023/08/13 13:04:44;;;;;;;7.65;1.70;;;;;;;;;;5044623;28;20528;-70
2023/08/13 13:07:09;;;;;;;5.18;2.20;;;;;;;;;;5041555;28;20033;-69
2023/08/13 13:09:35;;;;;;;14.88;2.65;;;;;;;;;;5035687;28;20037;-70
2023/08/13 13:12:00;;;;;;;2.92;1.52;;;;;;;;;;5034487;28;20049;-69
2023/08/13 13:14:26;;;;;;;2.38;1.20;;;;;;;;;;5037312;28;20053;-70
2023/08/13 13:16:51;;;;;;;2.70;1.30;;;;;;;;;;5043812;28;20574;-70
2023/08/13 13:19:17;;;;;;;4.97;1.33;;;;;;;;;;5043554;28;20040;-70
2023/08/13 13:21:42;;;;;;;2.03;1.20;;;;;;;;;;5040328;28;20537;-70
2023/08/13 13:24:08;;;;;;;4.53;1.70;;;;;;;;;;5043786;28;20025;-70
2023/08/13 13:26:33;;;;;;;4.18;1.95;;;;;;;;;;5046419;28;20612;-70
2023/08/13 13:28:58;;;;;;;6.10;1.60;;;;;;;;;;5053082;28;20132;-70
2023/08/13 13:31:24;;;;;;;5.25;1.48;;;;;;;;;;5060208;28;20572;-70
2023/08/13 13:33:50;;;;;;;3.55;1.45;;;;;;;;;;5047323;28;20061;-70
2023/08/13 13:36:16;;;;;;;4.25;1.70;;;;;;;;;;5047293;28;20033;-70
2023/08/13 13:38:41;;;;;;;6.90;1.50;;;;;;;;;;5046895;28;20517;-70
2023/08/13 13:41:06;;;;;;;5.05;1.50;;;;;;;;;;5047561;28;20028;-70
2023/08/13 13:43:32;;;;;;;3.85;1.52;;;;;;;;;;5038005;28;20151;-70
2023/08/13 13:45:57;;;;;;;4.18;1.25;;;;;;;;;;5044376;28;20119;-69
2023/08/13 13:48:22;;;;;;;5.65;1.67;;;;;;;;;;5032975;28;20060;-70
2023/08/13 13:50:48;;;;;;;4.57;1.45;;;;;;;;;;5028173;28;20024;-70
2023/08/13 13:53:13;;;;;;;3.67;1.50;;;;;;;;;;5039336;28;20036;-70
2023/08/13 13:55:39;;;;;;;3.08;1.30;;;;;;;;;;5058561;28;20557;-70
2023/08/13 13:58:05;;;;;;;3.20;1.30;;;;;;;;;;5042990;28;20056;-69
2023/08/13 14:00:31;;;;;;;5.82;1.50;;;;;;;;;;5035204;28;20067;-69
2023/08/13 14:02:56;;;;;;;3.63;1.35;;;;;;;;;;5032281;28;20148;-69
2023/08/13 14:05:22;;;;;;;5.53;1.55;;;;;;;;;;5037376;28;20513;-70
2023/08/13 14:07:47;;;;;;;5.32;1.73;;;;;;;;;;5042403;28;20035;-70
2023/08/13 14:10:12;;;;;;;3.90;1.67;;;;;;;;;;5043559;28;20039;-70
2023/08/13 14:12:38;;;;;;;3.00;1.35;;;;;;;;;;5031134;28;20037;-69
2023/08/13 14:15:04;;;;;;;3.17;1.50;;;;;;;;;;5037898;28;20627;-69
2023/08/13 14:17:29;;;;;;;6.13;1.67;;;;;;;;;;5042846;28;20043;-70
2023/08/13 14:19:55;;;;;;;3.67;1.20;;;;;;;;;;5010024;28;20073;-69
2023/08/13 14:22:20;;;;;;;5.28;1.65;;;;;;;;;;5022842;28;20037;-70
2023/08/13 14:24:46;;;;;;;5.20;1.40;;;;;;;;;;5043689;28;20048;-69
2023/08/13 14:27:11;;;;;;;6.60;1.58;;;;;;;;;;5030510;28;20275;-70
2023/08/13 14:29:37;;;;;;;4.80;1.40;;;;;;;;;;5011056;28;20054;-69
2023/08/13 14:32:02;;;;;;;6.18;1.40;;;;;;;;;;4997412;28;20026;-70
2023/08/13 14:34:28;;;;;;;3.17;1.40;;;;;;;;;;4999141;28;20569;-70
2023/08/13 14:36:54;;;;;;;6.35;1.38;;;;;;;;;;5007643;28;20033;-70